sensor_id;sensor_type;location;lat;lon;timestamp;pressure;altitude;pressure_sealevel;temperature;humidity
46506;BME280;32220;49.808;9.968;2023-05-22T00:01:47;98512.44;;;19.08;57.76
46506;BME280;32220;49.808;9.968;2023-05-22T00:04:16;98498.81;;;19.01;58.01
46506;BME280;32220;49.808;9.968;2023-05-22T00:06:48;98504.66;;;18.96;57.88
46506;BME280;32220;49.808;9.968;2023-05-22T00:09:16;98504.66;;;18.96;58.08
46506;BME280;32220;49.808;9.968;2023-05-22T00:11:43;98509.66;;;18.91;58.52
46506;BME280;32220;49.808;9.968;2023-05-22T00:14:11;98498.84;;;18.83;58.33
46506;BME280;32220;49.808;9.968;2023-05-22T00:16:39;98504.53;;;18.80;58.53
46506;BME280;32220;49.808;9.968;2023-05-22T00:19:07;98515.59;;;18.77;58.64
46506;BME280;32220;49.808;9.968;2023-05-22T00:21:41;98507.84;;;18.74;58.68
46506;BME280;32220;49.808;9.968;2023-05-22T00:24:10;98499.41;;;18.69;58.48
46506;BME280;32220;49.808;9.968;2023-05-22T00:26:38;98505.09;;;18.66;58.71
46506;BME280;32220;49.808;9.968;2023-05-22T00:29:06;98508.09;;;18.63;58.79
46506;BME280;32220;49.808;9.968;2023-05-22T00:31:34;98508.09;;;18.63;59.28
46506;BME280;32220;49.808;9.968;2023-05-22T00:34:02;98493.91;;;18.53;59.24
46506;BME280;32220;49.808;9.968;2023-05-22T00:36:29;98499.66;;;18.58;59.19
46506;BME280;32220;49.808;9.968;2023-05-22T00:38:57;98501.63;;;18.56;59.52
46506;BME280;32220;49.808;9.968;2023-05-22T00:41:26;98484.78;;;18.46;59.20
46506;BME280;32220;49.808;9.968;2023-05-22T00:43:54;98497.88;;;18.49;59.31
46506;BME280;32220;49.808;9.968;2023-05-22T00:46:22;98501.09;;;18.52;59.31
46506;BME280;32220;49.808;9.968;2023-05-22T00:48:49;98499.72;;;18.48;59.05
46506;BME280;32220;49.808;9.968;2023-05-22T00:51:19;98491.81;;;18.47;59.55
46506;BME280;32220;49.808;9.968;2023-05-22T00:53:47;98485.72;;;18.37;59.28
46506;BME280;32220;49.808;9.968;2023-05-22T00:56:16;98498.13;;;18.38;59.54
46506;BME280;32220;49.808;9.968;2023-05-22T00:58:47;98496.72;;;18.34;59.60
46506;BME280;32220;49.808;9.968;2023-05-22T01:01:15;98483.56;;;18.22;59.87
46506;BME280;32220;49.808;9.968;2023-05-22T01:03:44;98469.00;;;18.07;59.89
46506;BME280;32220;49.808;9.968;2023-05-22T01:06:12;98487.38;;;18.20;59.84
46506;BME280;32220;49.808;9.968;2023-05-22T01:08:41;98480.56;;;18.08;59.87
46506;BME280;32220;49.808;9.968;2023-05-22T01:11:14;98490.13;;;18.10;60.00
46506;BME280;32220;49.808;9.968;2023-05-22T01:13:52;98473.88;;;17.94;60.27
46506;BME280;32220;49.808;9.968;2023-05-22T01:16:25;98495.56;;;18.01;60.31
46506;BME280;32220;49.808;9.968;2023-05-22T01:19:00;98497.00;;;17.95;60.39
46506;BME280;32220;49.808;9.968;2023-05-22T01:21:38;98483.81;;;17.84;60.71
46506;BME280;32220;49.808;9.968;2023-05-22T01:24:40;98497.06;;;17.85;60.74
46506;BME280;32220;49.808;9.968;2023-05-22T01:27:32;98503.91;;;17.80;61.25
46506;BME280;32220;49.808;9.968;2023-05-22T01:33:25;98499.03;;;17.66;61.14
46506;BME280;32220;49.808;9.968;2023-05-22T01:35:56;98501.97;;;17.63;61.46
46506;BME280;32220;49.808;9.968;2023-05-22T01:38:26;98497.75;;;17.60;61.79
46506;BME280;32220;49.808;9.968;2023-05-22T01:40:55;98497.19;;;17.56;62.04
46506;BME280;32220;49.808;9.968;2023-05-22T01:43:23;98489.06;;;17.48;62.10
46506;BME280;32220;49.808;9.968;2023-05-22T01:45:50;98498.50;;;17.52;62.44
46506;BME280;32220;49.808;9.968;2023-05-22T01:48:18;98501.47;;;17.49;62.13
46506;BME280;32220;49.808;9.968;2023-05-22T01:50:50;98498.94;;;17.48;62.46
46506;BME280;32220;49.808;9.968;2023-05-22T01:53:24;98503.72;;;17.44;62.33
46506;BME280;32220;49.808;9.968;2023-05-22T01:55:58;98504.06;;;17.41;62.19
46506;BME280;32220;49.808;9.968;2023-05-22T01:58:30;98504.34;;;17.38;62.33
46506;BME280;32220;49.808;9.968;2023-05-22T02:01:00;98507.16;;;17.37;62.45
46506;BME280;32220;49.808;9.968;2023-05-22T02:03:30;98517.31;;;17.33;62.64
46506;BME280;32220;49.808;9.968;2023-05-22T02:06:04;98503.22;;;17.31;62.94
46506;BME280;32220;49.808;9.968;2023-05-22T02:08:33;98507.91;;;17.29;62.75
46506;BME280;32220;49.808;9.968;2023-05-22T02:11:02;98514.25;;;17.28;63.25
46506;BME280;32220;49.808;9.968;2023-05-22T02:13:31;98507.47;;;17.24;63.30
46506;BME280;32220;49.808;9.968;2023-05-22T02:15:59;98505.94;;;17.21;63.80
46506;BME280;32220;49.808;9.968;2023-05-22T02:18:29;98509.75;;;17.19;63.90
46506;BME280;32220;49.808;9.968;2023-05-22T02:20:57;98504.72;;;17.16;63.55
46506;BME280;32220;49.808;9.968;2023-05-22T02:23:27;98512.03;;;17.14;63.90
46506;BME280;32220;49.808;9.968;2023-05-22T02:25:56;98505.97;;;17.12;64.10
46506;BME280;32220;49.808;9.968;2023-05-22T02:28:23;98502.75;;;17.08;64.93
46506;BME280;32220;49.808;9.968;2023-05-22T02:30:51;98494.84;;;17.07;66.39
46506;BME280;32220;49.808;9.968;2023-05-22T02:33:18;98500.53;;;17.04;66.69
46506;BME280;32220;49.808;9.968;2023-05-22T02:35:48;98500.81;;;17.01;66.44
46506;BME280;32220;49.808;9.968;2023-05-22T02:38:16;98504.47;;;17.00;67.12
46506;BME280;32220;49.808;9.968;2023-05-22T02:40:45;98498.25;;;16.99;67.73
46506;BME280;32220;49.808;9.968;2023-05-22T02:43:14;98502.78;;;16.99;67.43
46506;BME280;32220;49.808;9.968;2023-05-22T02:45:42;98498.56;;;16.96;67.58
46506;BME280;32220;49.808;9.968;2023-05-22T02:48:10;98490.66;;;16.95;68.42
46506;BME280;32220;49.808;9.968;2023-05-22T02:50:38;98479.44;;;16.81;67.77
46506;BME280;32220;49.808;9.968;2023-05-22T02:53:05;98498.31;;;16.90;67.75
46506;BME280;32220;49.808;9.968;2023-05-22T02:55:34;98503.22;;;16.84;67.59
46506;BME280;32220;49.808;9.968;2023-05-22T02:58:04;98501.66;;;16.82;67.54
46506;BME280;32220;49.808;9.968;2023-05-22T03:00:31;98475.81;;;16.63;67.56
46506;BME280;32220;49.808;9.968;2023-05-22T03:02:59;98506.75;;;16.75;67.23
46506;BME280;32220;49.808;9.968;2023-05-22T03:05:27;98512.38;;;16.72;67.55
46506;BME280;32220;49.808;9.968;2023-05-22T03:07:54;98515.34;;;16.69;67.32
46506;BME280;32220;49.808;9.968;2023-05-22T03:10:22;98522.81;;;16.66;67.54
46506;BME280;32220;49.808;9.968;2023-05-22T03:12:50;98510.69;;;16.62;67.10
46506;BME280;32220;49.808;9.968;2023-05-22T03:15:19;98509.28;;;16.58;68.22
46506;BME280;32220;49.808;9.968;2023-05-22T03:17:48;98517.75;;;16.53;67.77
46506;BME280;32220;49.808;9.968;2023-05-22T03:20:16;98517.16;;;16.49;67.65
46506;BME280;32220;49.808;9.968;2023-05-22T03:22:44;98514.91;;;16.45;67.81
46506;BME280;32220;49.808;9.968;2023-05-22T03:25:13;98516.91;;;16.43;67.80
46506;BME280;32220;49.808;9.968;2023-05-22T03:27:41;98498.75;;;16.27;67.67
46506;BME280;32220;49.808;9.968;2023-05-22T03:30:09;98512.94;;;16.37;67.67
46506;BME280;32220;49.808;9.968;2023-05-22T03:32:41;98514.91;;;16.35;68.40
46506;BME280;32220;49.808;9.968;2023-05-22T03:35:09;98522.09;;;16.35;68.40
46506;BME280;32220;49.808;9.968;2023-05-22T03:37:38;98513.53;;;16.31;68.41
46506;BME280;32220;49.808;9.968;2023-05-22T03:40:06;98522.09;;;16.35;68.35
46506;BME280;32220;49.808;9.968;2023-05-22T03:42:35;98526.44;;;16.36;68.33
46506;BME280;32220;49.808;9.968;2023-05-22T03:45:04;98522.09;;;16.35;68.28
46506;BME280;32220;49.808;9.968;2023-05-22T03:47:32;98499.16;;;16.23;68.01
46506;BME280;32220;49.808;9.968;2023-05-22T03:50:00;98519.28;;;16.36;68.39
46506;BME280;32220;49.808;9.968;2023-05-22T03:52:28;98525.34;;;16.38;68.65
46506;BME280;32220;49.808;9.968;2023-05-22T03:54:56;98520.84;;;16.39;68.38
46506;BME280;32220;49.808;9.968;2023-05-22T03:57:24;98511.25;;;16.36;68.57
46506;BME280;32220;49.808;9.968;2023-05-22T03:59:52;98512.22;;;16.45;68.38
46506;BME280;32220;49.808;9.968;2023-05-22T04:02:19;98515.47;;;16.48;68.20
46506;BME280;32220;49.808;9.968;2023-05-22T04:04:47;98521.41;;;16.52;68.22
46506;BME280;32220;49.808;9.968;2023-05-22T04:07:16;98515.63;;;16.57;68.08
46506;BME280;32220;49.808;9.968;2023-05-22T04:09:45;98527.59;;;16.62;68.26
46506;BME280;32220;49.808;9.968;2023-05-22T04:12:13;98526.22;;;16.68;68.23
46506;BME280;32220;49.808;9.968;2023-05-22T04:14:42;98528.44;;;16.72;67.87
46506;BME280;32220;49.808;9.968;2023-05-22T04:17:09;98525.91;;;16.80;67.81
46506;BME280;32220;49.808;9.968;2023-05-22T04:19:37;98512.38;;;16.82;67.80
46506;BME280;32220;49.808;9.968;2023-05-22T04:22:05;98529.28;;;16.92;67.49
46506;BME280;32220;49.808;9.968;2023-05-22T04:24:34;98534.31;;;16.95;67.85
46506;BME280;32220;49.808;9.968;2023-05-22T04:27:04;98533.88;;;17.00;67.38
46506;BME280;32220;49.808;9.968;2023-05-22T04:29:33;98534.31;;;17.05;67.44
46506;BME280;32220;49.808;9.968;2023-05-22T04:32:02;98531.03;;;17.11;67.40
46506;BME280;32220;49.808;9.968;2023-05-22T04:34:31;98534.97;;;17.16;67.13
46506;BME280;32220;49.808;9.968;2023-05-22T04:36:58;98540.59;;;17.23;67.12
46506;BME280;32220;49.808;9.968;2023-05-22T04:39:28;98524.13;;;17.18;67.29
46506;BME280;32220;49.808;9.968;2023-05-22T04:41:59;98544.06;;;17.33;67.23
46506;BME280;32220;49.808;9.968;2023-05-22T04:44:31;98541.22;;;17.44;66.75
46506;BME280;32220;49.808;9.968;2023-05-22T04:46:59;98544.88;;;17.53;66.76
46506;BME280;32220;49.808;9.968;2023-05-22T04:49:27;98545.81;;;17.62;66.84
46506;BME280;32220;49.808;9.968;2023-05-22T04:51:55;98540.19;;;17.65;66.46
46506;BME280;32220;49.808;9.968;2023-05-22T04:54:23;98549.44;;;17.80;66.50
46506;BME280;32220;49.808;9.968;2023-05-22T04:56:51;98555.44;;;17.91;66.23
46506;BME280;32220;49.808;9.968;2023-05-22T04:59:33;98555.38;;;18.01;66.01
46506;BME280;32220;49.808;9.968;2023-05-22T05:02:14;98549.09;;;18.10;65.84
46506;BME280;32220;49.808;9.968;2023-05-22T05:04:42;98551.84;;;18.18;65.75
46506;BME280;32220;49.808;9.968;2023-05-22T05:07:11;98550.97;;;18.27;66.21
46506;BME280;32220;49.808;9.968;2023-05-22T05:09:43;98559.09;;;18.36;65.62
46506;BME280;32220;49.808;9.968;2023-05-22T05:12:10;98551.81;;;18.46;65.81
46506;BME280;32220;49.808;9.968;2023-05-22T05:14:39;98552.56;;;18.56;65.54
46506;BME280;32220;49.808;9.968;2023-05-22T05:17:07;98553.06;;;18.69;65.28
46506;BME280;32220;49.808;9.968;2023-05-22T05:19:35;98551.97;;;18.80;65.20
46506;BME280;32220;49.808;9.968;2023-05-22T05:22:03;98554.09;;;18.94;64.97
46506;BME280;32220;49.808;9.968;2023-05-22T05:24:31;98542.97;;;19.07;64.55
46506;BME280;32220;49.808;9.968;2023-05-22T05:27:01;98544.75;;;19.24;64.50
46506;BME280;32220;49.808;9.968;2023-05-22T05:29:30;98545.19;;;19.37;64.71
46506;BME280;32220;49.808;9.968;2023-05-22T05:32:05;98554.38;;;19.52;64.44
46506;BME280;32220;49.808;9.968;2023-05-22T05:34:46;98547.38;;;19.67;63.77
46506;BME280;32220;49.808;9.968;2023-05-22T05:37:21;98557.91;;;19.87;63.63
46506;BME280;32220;49.808;9.968;2023-05-22T05:39:49;98555.44;;;20.01;63.17
46506;BME280;32220;49.808;9.968;2023-05-22T05:42:17;98558.31;;;20.16;62.82
46506;BME280;32220;49.808;9.968;2023-05-22T05:44:47;98552.47;;;20.29;62.13
46506;BME280;32220;49.808;9.968;2023-05-22T05:47:16;98568.88;;;20.52;61.67
46506;BME280;32220;49.808;9.968;2023-05-22T05:49:44;98551.72;;;20.61;61.64
46506;BME280;32220;49.808;9.968;2023-05-22T05:52:14;98551.06;;;20.83;60.88
46506;BME280;32220;49.808;9.968;2023-05-22T05:54:41;98569.56;;;21.02;60.19
46506;BME280;32220;49.808;9.968;2023-05-22T05:57:14;98567.88;;;21.17;60.02
46506;BME280;32220;49.808;9.968;2023-05-22T05:59:42;98568.56;;;21.36;59.75
46506;BME280;32220;49.808;9.968;2023-05-22T06:02:49;98571.88;;;21.54;59.30
46506;BME280;32220;49.808;9.968;2023-05-22T06:05:45;98574.69;;;21.69;58.53
46506;BME280;32220;49.808;9.968;2023-05-22T06:08:22;98581.75;;;21.86;57.92
46506;BME280;32220;49.808;9.968;2023-05-22T06:10:50;98570.06;;;22.02;57.96
46506;BME280;32220;49.808;9.968;2023-05-22T06:13:37;98573.56;;;22.10;56.95
46506;BME280;32220;49.808;9.968;2023-05-22T06:16:05;98581.41;;;22.28;56.75
46506;BME280;32220;49.808;9.968;2023-05-22T06:18:35;98532.56;;;22.15;56.78
46506;BME280;32220;49.808;9.968;2023-05-22T06:21:04;98592.66;;;22.63;56.29
46506;BME280;32220;49.808;9.968;2023-05-22T06:23:33;98586.16;;;22.80;56.61
46506;BME280;32220;49.808;9.968;2023-05-22T06:26:01;98576.53;;;23.00;56.37
46506;BME280;32220;49.808;9.968;2023-05-22T06:28:30;98592.09;;;23.21;54.71
46506;BME280;32220;49.808;9.968;2023-05-22T06:31:00;98587.09;;;23.33;53.71
46506;BME280;32220;49.808;9.968;2023-05-22T06:33:28;98588.13;;;23.46;53.21
46506;BME280;32220;49.808;9.968;2023-05-22T06:35:58;98587.13;;;23.62;52.96
46506;BME280;32220;49.808;9.968;2023-05-22T06:38:26;98598.38;;;23.74;51.79
46506;BME280;32220;49.808;9.968;2023-05-22T06:40:54;98586.88;;;23.86;52.37
46506;BME280;32220;49.808;9.968;2023-05-22T06:43:24;98583.13;;;24.02;52.00
46506;BME280;32220;49.808;9.968;2023-05-22T06:46:10;98588.44;;;24.25;51.75
46506;BME280;32220;49.808;9.968;2023-05-22T06:48:49;98575.38;;;24.43;51.46
46506;BME280;32220;49.808;9.968;2023-05-22T06:51:24;98589.00;;;24.71;50.13
46506;BME280;32220;49.808;9.968;2023-05-22T06:54:01;98584.16;;;24.88;50.16
46506;BME280;32220;49.808;9.968;2023-05-22T06:56:31;98588.97;;;25.07;49.85
46506;BME280;32220;49.808;9.968;2023-05-22T06:59:03;98588.91;;;25.22;49.35
46506;BME280;32220;49.808;9.968;2023-05-22T07:01:54;98603.09;;;25.52;48.39
46506;BME280;32220;49.808;9.968;2023-05-22T07:04:45;98598.66;;;25.72;48.42
46506;BME280;32220;49.808;9.968;2023-05-22T07:07:19;98597.06;;;25.84;48.71
46506;BME280;32220;49.808;9.968;2023-05-22T07:09:47;98594.88;;;25.94;47.82
46506;BME280;32220;49.808;9.968;2023-05-22T07:12:15;98619.84;;;26.18;46.24
46506;BME280;32220;49.808;9.968;2023-05-22T07:14:43;98627.88;;;26.32;44.88
46506;BME280;32220;49.808;9.968;2023-05-22T07:17:12;98633.84;;;26.62;44.75
46506;BME280;32220;49.808;9.968;2023-05-22T07:19:43;98643.56;;;26.98;43.38
46506;BME280;32220;49.808;9.968;2023-05-22T07:22:11;98641.56;;;27.39;42.78
46506;BME280;32220;49.808;9.968;2023-05-22T07:24:41;98654.34;;;27.78;41.45
46506;BME280;32220;49.808;9.968;2023-05-22T07:27:10;98646.31;;;28.10;40.37
46506;BME280;32220;49.808;9.968;2023-05-22T07:29:38;98654.81;;;28.53;40.00
46506;BME280;32220;49.808;9.968;2023-05-22T07:32:07;98647.28;;;29.00;39.20
46506;BME280;32220;49.808;9.968;2023-05-22T07:34:36;98660.50;;;29.65;37.99
46506;BME280;32220;49.808;9.968;2023-05-22T07:37:07;98673.78;;;30.05;36.44
46506;BME280;32220;49.808;9.968;2023-05-22T07:39:36;98647.88;;;30.14;37.06
46506;BME280;32220;49.808;9.968;2023-05-22T07:42:06;98659.69;;;30.08;37.11
46506;BME280;32220;49.808;9.968;2023-05-22T07:44:40;98656.91;;;29.90;37.47
46506;BME280;32220;49.808;9.968;2023-05-22T07:47:08;98657.66;;;29.79;37.50
46506;BME280;32220;49.808;9.968;2023-05-22T07:49:36;98656.13;;;29.83;37.30
46506;BME280;32220;49.808;9.968;2023-05-22T07:52:04;98653.47;;;29.94;37.60
46506;BME280;32220;49.808;9.968;2023-05-22T07:54:32;98660.63;;;30.39;36.06
46506;BME280;32220;49.808;9.968;2023-05-22T07:56:59;98661.09;;;31.32;34.85
46506;BME280;32220;49.808;9.968;2023-05-22T07:59:33;98665.13;;;32.41;33.28
46506;BME280;32220;49.808;9.968;2023-05-22T08:02:02;98686.84;;;32.94;32.28
46506;BME280;32220;49.808;9.968;2023-05-22T08:04:30;98690.00;;;32.86;32.37
46506;BME280;32220;49.808;9.968;2023-05-22T08:06:58;98682.16;;;32.55;32.80
46506;BME280;32220;49.808;9.968;2023-05-22T08:09:26;98681.66;;;32.81;33.33
46506;BME280;32220;49.808;9.968;2023-05-22T08:11:54;98689.81;;;33.33;31.62
46506;BME280;32220;49.808;9.968;2023-05-22T08:14:22;98686.31;;;34.33;30.58
46506;BME280;32220;49.808;9.968;2023-05-22T08:16:51;98699.47;;;35.40;29.75
46506;BME280;32220;49.808;9.968;2023-05-22T08:19:18;98706.91;;;35.98;28.32
46506;BME280;32220;49.808;9.968;2023-05-22T08:21:46;98693.19;;;36.03;27.74
46506;BME280;32220;49.808;9.968;2023-05-22T08:24:14;98695.16;;;36.08;28.42
46506;BME280;32220;49.808;9.968;2023-05-22T08:26:41;98689.38;;;36.09;27.54
46506;BME280;32220;49.808;9.968;2023-05-22T08:29:09;98694.13;;;36.19;28.15
46506;BME280;32220;49.808;9.968;2023-05-22T08:31:37;98690.09;;;36.31;27.89
46506;BME280;32220;49.808;9.968;2023-05-22T08:34:06;98680.03;;;36.57;28.48
46506;BME280;32220;49.808;9.968;2023-05-22T08:36:35;98686.31;;;37.05;26.87
46506;BME280;32220;49.808;9.968;2023-05-22T08:39:04;98696.38;;;37.62;25.87
46506;BME280;32220;49.808;9.968;2023-05-22T08:41:32;98694.44;;;38.43;25.76
46506;BME280;32220;49.808;9.968;2023-05-22T08:44:00;98692.66;;;38.83;25.02
46506;BME280;32220;49.808;9.968;2023-05-22T08:46:28;98678.63;;;38.64;25.39
46506;BME280;32220;49.808;9.968;2023-05-22T08:48:57;98688.66;;;37.99;25.16
46506;BME280;32220;49.808;9.968;2023-05-22T08:51:28;98667.63;;;37.32;27.14
46506;BME280;32220;49.808;9.968;2023-05-22T08:53:57;98666.34;;;36.78;27.32
46506;BME280;32220;49.808;9.968;2023-05-22T08:56:26;98660.66;;;36.47;28.21
46506;BME280;32220;49.808;9.968;2023-05-22T08:58:56;98653.22;;;36.11;28.87
46506;BME280;32220;49.808;9.968;2023-05-22T09:01:24;98656.97;;;35.89;28.45
46506;BME280;32220;49.808;9.968;2023-05-22T09:03:52;98665.00;;;35.64;27.88
46506;BME280;32220;49.808;9.968;2023-05-22T09:06:20;98644.81;;;35.26;28.12
46506;BME280;32220;49.808;9.968;2023-05-22T09:08:49;98644.50;;;34.96;29.05
46506;BME280;32220;49.808;9.968;2023-05-22T09:11:18;98633.66;;;34.89;30.44
46506;BME280;32220;49.808;9.968;2023-05-22T09:13:46;98624.97;;;34.98;31.58
46506;BME280;32220;49.808;9.968;2023-05-22T09:16:15;98636.91;;;35.08;29.69
46506;BME280;32220;49.808;9.968;2023-05-22T09:18:43;98633.59;;;35.06;30.21
46506;BME280;32220;49.808;9.968;2023-05-22T09:21:12;98640.59;;;34.92;29.10
46506;BME280;32220;49.808;9.968;2023-05-22T09:23:39;98613.84;;;34.44;29.01
46506;BME280;32220;49.808;9.968;2023-05-22T09:26:08;98639.50;;;34.49;30.09
46506;BME280;32220;49.808;9.968;2023-05-22T09:28:36;98623.75;;;34.67;30.44
46506;BME280;32220;49.808;9.968;2023-05-22T09:31:03;98626.31;;;34.95;30.44
46506;BME280;32220;49.808;9.968;2023-05-22T09:33:31;98625.59;;;35.32;30.59
46506;BME280;32220;49.808;9.968;2023-05-22T09:35:59;98632.59;;;35.44;29.19
46506;BME280;32220;49.808;9.968;2023-05-22T09:38:28;98648.38;;;35.54;28.44
46506;BME280;32220;49.808;9.968;2023-05-22T09:40:56;98618.75;;;35.34;29.04
46506;BME280;32220;49.808;9.968;2023-05-22T09:43:25;98627.78;;;35.29;28.86
46506;BME280;32220;49.808;9.968;2023-05-22T09:45:59;98637.91;;;35.83;29.40
46506;BME280;32220;49.808;9.968;2023-05-22T09:48:27;98649.69;;;36.62;27.43
46506;BME280;32220;49.808;9.968;2023-05-22T09:50:56;98629.50;;;37.55;25.62
46506;BME280;32220;49.808;9.968;2023-05-22T09:53:26;98654.88;;;38.38;25.17
46506;BME280;32220;49.808;9.968;2023-05-22T09:55:55;98643.84;;;38.23;25.46
46506;BME280;32220;49.808;9.968;2023-05-22T09:58:26;98626.47;;;37.92;26.85
46506;BME280;32220;49.808;9.968;2023-05-22T10:00:54;98629.22;;;37.87;27.41
46506;BME280;32220;49.808;9.968;2023-05-22T10:03:26;98625.38;;;37.83;27.60
46506;BME280;32220;49.808;9.968;2023-05-22T10:05:54;98653.31;;;37.66;25.72
46506;BME280;32220;49.808;9.968;2023-05-22T10:08:26;98644.41;;;37.59;26.77
46506;BME280;32220;49.808;9.968;2023-05-22T10:10:54;98655.78;;;37.72;25.65
46506;BME280;32220;49.808;9.968;2023-05-22T10:13:25;98638.91;;;37.94;27.50
46506;BME280;32220;49.808;9.968;2023-05-22T10:15:53;98639.38;;;38.37;27.21
46506;BME280;32220;49.808;9.968;2023-05-22T10:18:22;98650.06;;;38.79;25.25
46506;BME280;32220;49.808;9.968;2023-05-22T10:20:51;98651.53;;;39.15;24.81
46506;BME280;32220;49.808;9.968;2023-05-22T10:23:20;98644.75;;;39.42;24.01
46506;BME280;32220;49.808;9.968;2023-05-22T10:25:48;98666.75;;;39.62;24.06
46506;BME280;32220;49.808;9.968;2023-05-22T10:28:21;98646.63;;;39.46;24.82
46506;BME280;32220;49.808;9.968;2023-05-22T10:30:57;98634.66;;;39.12;25.54
46506;BME280;32220;49.808;9.968;2023-05-22T10:33:48;98631.72;;;38.88;26.00
46506;BME280;32220;49.808;9.968;2023-05-22T10:36:26;98607.88;;;38.92;26.14
46506;BME280;32220;49.808;9.968;2023-05-22T10:39:06;98635.88;;;38.86;24.62
46506;BME280;32220;49.808;9.968;2023-05-22T10:41:39;98627.19;;;38.43;26.35
46506;BME280;32220;49.808;9.968;2023-05-22T10:44:06;98617.88;;;38.14;26.62
46506;BME280;32220;49.808;9.968;2023-05-22T10:46:35;98612.91;;;38.00;27.15
46506;BME280;32220;49.808;9.968;2023-05-22T10:49:03;98601.28;;;38.03;27.89
46506;BME280;32220;49.808;9.968;2023-05-22T10:51:31;98604.31;;;37.97;27.73
46506;BME280;32220;49.808;9.968;2023-05-22T10:54:00;98602.97;;;37.94;27.64
46506;BME280;32220;49.808;9.968;2023-05-22T10:56:34;98605.72;;;38.04;26.39
46506;BME280;32220;49.808;9.968;2023-05-22T10:59:03;98601.28;;;38.19;27.21
46506;BME280;32220;49.808;9.968;2023-05-22T11:01:34;98605.16;;;38.18;26.07
46506;BME280;32220;49.808;9.968;2023-05-22T11:04:10;98584.16;;;37.91;25.96
46506;BME280;32220;49.808;9.968;2023-05-22T11:06:44;98596.59;;;38.04;27.74
46506;BME280;32220;49.808;9.968;2023-05-22T11:09:16;98601.84;;;38.00;26.06
46506;BME280;32220;49.808;9.968;2023-05-22T11:11:44;98580.28;;;37.97;28.22
46506;BME280;32220;49.808;9.968;2023-05-22T11:14:15;98619.25;;;38.11;24.61
46506;BME280;32220;49.808;9.968;2023-05-22T11:16:44;98603.28;;;37.83;24.36
46506;BME280;32220;49.808;9.968;2023-05-22T11:19:13;98611.56;;;37.72;25.85
46506;BME280;32220;49.808;9.968;2023-05-22T11:21:41;98599.13;;;37.65;26.25
46506;BME280;32220;49.808;9.968;2023-05-22T11:24:09;98613.50;;;37.57;25.67
46506;BME280;32220;49.808;9.968;2023-05-22T11:26:40;98606.03;;;37.42;25.67
46506;BME280;32220;49.808;9.968;2023-05-22T11:29:08;98594.16;;;37.42;26.68
46506;BME280;32220;49.808;9.968;2023-05-22T11:31:37;98591.34;;;37.47;27.31
46506;BME280;32220;49.808;9.968;2023-05-22T11:34:06;98601.88;;;37.50;26.02
46506;BME280;32220;49.808;9.968;2023-05-22T11:36:35;98590.81;;;37.55;26.48
46506;BME280;32220;49.808;9.968;2023-05-22T11:39:03;98578.09;;;37.79;27.63
46506;BME280;32220;49.808;9.968;2023-05-22T11:41:32;98557.34;;;37.87;26.82
46506;BME280;32220;49.808;9.968;2023-05-22T11:44:01;98578.28;;;38.23;27.11
46506;BME280;32220;49.808;9.968;2023-05-22T11:46:30;98564.59;;;38.62;26.62
46506;BME280;32220;49.808;9.968;2023-05-22T11:48:58;98588.09;;;39.14;24.62
46506;BME280;32220;49.808;9.968;2023-05-22T11:51:27;98590.56;;;39.83;24.80
46506;BME280;32220;49.808;9.968;2023-05-22T11:53:56;98573.88;;;41.03;25.32
46506;BME280;32220;49.808;9.968;2023-05-22T11:56:23;98603.31;;;42.06;20.98
46506;BME280;32220;49.808;9.968;2023-05-22T11:58:51;98600.34;;;43.21;21.03
46506;BME280;32220;49.808;9.968;2023-05-22T12:01:19;98610.56;;;44.23;20.19
46506;BME280;32220;49.808;9.968;2023-05-22T12:03:46;98590.75;;;45.16;20.50
46506;BME280;32220;49.808;9.968;2023-05-22T12:06:18;98608.31;;;45.94;18.12
46506;BME280;32220;49.808;9.968;2023-05-22T12:09:11;98594.31;;;46.62;18.75
46506;BME280;32220;49.808;9.968;2023-05-22T12:12:20;98550.16;;;47.30;18.68
46506;BME280;32220;49.808;9.968;2023-05-22T12:15:35;98548.25;;;48.00;18.18
46506;BME280;32220;49.808;9.968;2023-05-22T12:18:16;98608.13;;;48.61;16.25
46506;BME280;32220;49.808;9.968;2023-05-22T12:20:44;98598.50;;;48.26;17.16
46506;BME280;32220;49.808;9.968;2023-05-22T12:23:20;98592.69;;;47.85;17.70
46506;BME280;32220;49.808;9.968;2023-05-22T12:25:57;98588.25;;;47.31;16.63
46506;BME280;32220;49.808;9.968;2023-05-22T12:28:25;98571.22;;;46.94;17.86
46506;BME280;32220;49.808;9.968;2023-05-22T12:30:54;98593.03;;;46.68;15.92
46506;BME280;32220;49.808;9.968;2023-05-22T12:33:25;98577.38;;;46.88;16.99
46506;BME280;32220;49.808;9.968;2023-05-22T12:35:54;98588.22;;;47.18;14.94
46506;BME280;32220;49.808;9.968;2023-05-22T12:38:24;98566.47;;;47.48;17.21
46506;BME280;32220;49.808;9.968;2023-05-22T12:40:53;98572.88;;;47.70;15.82
46506;BME280;32220;49.808;9.968;2023-05-22T12:43:23;98568.78;;;47.67;15.33
46506;BME280;32220;49.808;9.968;2023-05-22T12:45:52;98566.28;;;47.99;16.12
46506;BME280;32220;49.808;9.968;2023-05-22T12:48:19;98572.41;;;48.49;15.78
46506;BME280;32220;49.808;9.968;2023-05-22T12:50:48;98563.03;;;48.70;15.76
46506;BME280;32220;49.808;9.968;2023-05-22T12:53:15;98559.75;;;48.68;15.24
46506;BME280;32220;49.808;9.968;2023-05-22T12:55:52;98580.84;;;48.25;14.70
46506;BME280;32220;49.808;9.968;2023-05-22T12:58:19;98555.34;;;47.73;16.02
46506;BME280;32220;49.808;9.968;2023-05-22T13:00:48;98548.41;;;47.58;15.83
46506;BME280;32220;49.808;9.968;2023-05-22T13:03:16;98534.41;;;47.70;17.61
46506;BME280;32220;49.808;9.968;2023-05-22T13:05:44;98558.38;;;47.68;14.99
46506;BME280;32220;49.808;9.968;2023-05-22T13:08:11;98551.72;;;47.72;16.18
46506;BME280;32220;49.808;9.968;2023-05-22T13:10:39;98542.22;;;48.10;16.41
46506;BME280;32220;49.808;9.968;2023-05-22T13:13:07;98539.16;;;48.39;15.37
46506;BME280;32220;49.808;9.968;2023-05-22T13:15:34;98532.19;;;48.73;16.04
46506;BME280;32220;49.808;9.968;2023-05-22T13:18:04;98536.19;;;49.24;15.83
46506;BME280;32220;49.808;9.968;2023-05-22T13:20:32;98515.41;;;49.57;15.76